createdAt,value
2018-03-11T00:00:09.107Z,998
2018-03-11T00:05:36.432Z,998
2018-03-11T00:11:03.795Z,998
2018-03-11T00:16:31.134Z,998
2018-03-11T00:21:58.604Z,998
2018-03-11T00:27:25.788Z,998
2018-03-11T00:32:54.183Z,998
2018-03-11T00:38:22.471Z,998
2018-03-11T00:43:49.784Z,998
2018-03-11T00:49:17.224Z,998
2018-03-11T00:54:44.486Z,998
2018-03-11T01:00:12.779Z,998
2018-03-11T01:05:40.124Z,998
2018-03-11T01:11:08.485Z,998
2018-03-11T01:16:36.876Z,998
2018-03-11T01:22:05.512Z,998
2018-03-11T01:27:33.480Z,997
2018-03-11T01:33:00.792Z,997
2018-03-11T01:38:28.192Z,997
2018-03-11T01:43:56.604Z,997
2018-03-11T01:49:23.854Z,997
2018-03-11T01:54:51.211Z,997
2018-03-11T02:00:18.788Z,997
2018-03-11T02:05:45.918Z,997
2018-03-11T02:11:14.250Z,997
2018-03-11T02:16:41.640Z,997
2018-03-11T02:22:08.907Z,997
2018-03-11T02:27:36.258Z,997
2018-03-11T02:33:03.613Z,997
2018-03-11T02:38:31.039Z,997
2018-03-11T02:43:58.420Z,997
2018-03-11T02:49:25.697Z,997
2018-03-11T02:54:52.962Z,997
2018-03-11T03:00:20.403Z,997
2018-03-11T03:05:47.672Z,997
2018-03-11T03:11:16.053Z,996
2018-03-11T03:16:43.450Z,996
2018-03-11T03:22:10.753Z,996
2018-03-11T03:27:39.082Z,996
2018-03-11T03:33:07.466Z,996
2018-03-11T03:38:35.796Z,996
2018-03-11T03:44:03.283Z,996
2018-03-11T03:49:31.605Z,996
2018-03-11T03:55:01.262Z,996
2018-03-11T04:00:28.241Z,996
2018-03-11T04:05:56.603Z,996
2018-03-11T04:11:23.963Z,996
2018-03-11T04:16:51.440Z,996
2018-03-11T04:22:18.717Z,996
2018-03-11T04:27:47.260Z,996
2018-03-11T04:33:15.407Z,996
2018-03-11T04:38:43.777Z,996
2018-03-11T04:44:11.126Z,996
2018-03-11T04:49:38.468Z,996
2018-03-11T04:55:06.897Z,996
2018-03-11T05:00:35.168Z,996
2018-03-11T05:06:02.564Z,996
2018-03-11T05:11:30.062Z,996
2018-03-11T05:16:57.303Z,996
2018-03-11T05:22:25.613Z,996
2018-03-11T05:27:52.983Z,996
2018-03-11T05:33:20.397Z,996
2018-03-11T05:38:47.729Z,996
2018-03-11T05:44:16.089Z,996
2018-03-11T05:49:43.449Z,996
2018-03-11T05:55:11.814Z,996
2018-03-11T06:00:39.203Z,996
2018-03-11T06:06:06.627Z,996
2018-03-11T06:11:34.930Z,996
2018-03-11T06:17:03.461Z,996
2018-03-11T06:22:30.721Z,996
2018-03-11T06:27:58.111Z,996
2018-03-11T06:33:26.588Z,996
2018-03-11T06:38:53.997Z,996
2018-03-11T06:44:21.385Z,996
2018-03-11T06:49:49.816Z,996
2018-03-11T06:55:17.277Z,996
2018-03-11T07:00:45.708Z,996
2018-03-11T07:06:13.135Z,996
2018-03-11T07:11:40.522Z,996
2018-03-11T07:17:08.937Z,996
2018-03-11T07:22:36.468Z,996
2018-03-11T07:28:04.852Z,996
2018-03-11T07:33:33.263Z,996
2018-03-11T07:39:00.752Z,996
2018-03-11T07:44:29.188Z,996
2018-03-11T07:49:57.679Z,996
2018-03-11T07:55:26.188Z,995
2018-03-11T08:00:54.645Z,996
2018-03-11T08:06:22.176Z,996
2018-03-11T08:11:49.731Z,996
2018-03-11T08:17:18.247Z,996
2018-03-11T08:22:45.774Z,996
2018-03-11T08:28:14.292Z,996
2018-03-11T08:33:42.849Z,996
2018-03-11T08:39:10.376Z,996
2018-03-11T08:44:38.935Z,996
2018-03-11T08:50:07.446Z,996
2018-03-11T08:55:35.158Z,996
2018-03-11T09:01:02.622Z,996
2018-03-11T09:06:31.156Z,996
2018-03-11T09:11:58.685Z,996
2018-03-11T09:17:27.244Z,996
2018-03-11T09:22:54.790Z,996
2018-03-11T09:28:23.346Z,995
2018-03-11T09:33:50.912Z,995
2018-03-11T09:39:19.484Z,995
2018-03-11T09:44:48.177Z,995
2018-03-11T09:50:15.650Z,995
2018-03-11T09:55:43.172Z,995
2018-03-11T10:01:10.782Z,995
2018-03-11T10:06:39.408Z,995
2018-03-11T10:12:08.014Z,995
2018-03-11T10:17:36.609Z,995
2018-03-11T10:23:04.476Z,995
2018-03-11T10:28:31.920Z,995
2018-03-11T10:33:59.588Z,995
2018-03-11T10:39:28.249Z,995
2018-03-11T10:44:56.926Z,995
2018-03-11T10:50:25.657Z,995
2018-03-11T10:55:53.356Z,995
2018-03-11T11:01:21.115Z,995
2018-03-11T11:06:48.849Z,995
2018-03-11T11:12:16.616Z,995
2018-03-11T11:17:44.370Z,995
2018-03-11T11:23:13.413Z,995
2018-03-11T11:28:42.085Z,995
2018-03-11T11:34:09.831Z,994
2018-03-11T11:39:38.739Z,994
2018-03-11T11:45:07.682Z,994
2018-03-11T11:50:36.707Z,994
2018-03-11T11:56:04.514Z,994
2018-03-11T12:01:33.436Z,994
2018-03-11T12:07:01.613Z,994
2018-03-11T12:12:29.345Z,994
2018-03-11T12:17:58.217Z,994
2018-03-11T12:23:26.190Z,994
2018-03-11T12:28:54.211Z,994
2018-03-11T12:34:22.249Z,994
2018-03-11T12:39:50.508Z,994
2018-03-11T12:45:19.394Z,994
2018-03-11T12:50:48.501Z,994
2018-03-11T12:56:17.591Z,994
2018-03-11T13:01:45.699Z,994
2018-03-11T13:07:13.772Z,993
2018-03-11T13:12:42.838Z,993
2018-03-11T13:18:11.870Z,993
2018-03-11T13:23:39.891Z,993
2018-03-11T13:29:08.937Z,993
2018-03-11T13:34:38.035Z,993
2018-03-11T13:40:06.099Z,993
2018-03-11T13:45:34.233Z,993
2018-03-11T13:51:02.394Z,993
2018-03-11T13:56:31.361Z,993
2018-03-11T14:02:00.486Z,993
2018-03-11T14:07:29.694Z,993
2018-03-11T14:12:58.756Z,993
2018-03-11T14:18:27.858Z,993
2018-03-11T14:23:56.970Z,993
2018-03-11T14:29:25.070Z,993
2018-03-11T14:34:53.150Z,993
2018-03-11T14:40:22.228Z,992
2018-03-11T14:45:51.379Z,992
2018-03-11T14:51:19.326Z,992
2018-03-11T14:56:48.329Z,992
2018-03-11T15:02:18.743Z,992
2018-03-11T15:07:45.281Z,992
2018-03-11T15:13:15.272Z,992
2018-03-11T15:18:43.210Z,992
2018-03-11T15:24:11.315Z,992
2018-03-11T15:29:39.049Z,992
2018-03-11T15:35:06.999Z,991
2018-03-11T15:40:34.962Z,991
2018-03-11T15:46:03.749Z,991
2018-03-11T15:51:31.648Z,991
2018-03-11T15:57:00.516Z,991
2018-03-11T16:02:27.313Z,992
2018-03-11T16:07:55.190Z,991
2018-03-11T16:13:24.017Z,991
2018-03-11T16:18:52.824Z,991
2018-03-11T16:24:28.472Z,991
2018-03-11T16:29:49.521Z,991
2018-03-11T16:35:18.340Z,991
2018-03-11T16:40:47.216Z,991
2018-03-11T16:46:15.076Z,991
2018-03-11T16:51:43.741Z,991
2018-03-11T16:57:11.557Z,991
2018-03-11T17:02:39.343Z,991
2018-03-11T17:08:07.170Z,991
2018-03-11T17:13:34.913Z,991
2018-03-11T17:19:03.696Z,991
2018-03-11T17:24:32.428Z,991
2018-03-11T17:30:00.147Z,991
2018-03-11T17:35:27.926Z,991
2018-03-11T17:40:56.609Z,991
2018-03-11T17:46:25.378Z,991
2018-03-11T17:51:53.086Z,991
2018-03-11T17:57:21.849Z,991
2018-03-11T18:02:49.550Z,991
2018-03-11T18:08:19.260Z,991
2018-03-11T18:13:46.976Z,991
2018-03-11T18:19:15.771Z,991
2018-03-11T18:24:43.593Z,991
2018-03-11T18:30:11.462Z,991
2018-03-11T18:35:38.835Z,991
2018-03-11T18:41:06.517Z,991
2018-03-11T18:46:35.256Z,991
2018-03-11T18:52:03.996Z,991
2018-03-11T18:57:31.772Z,992
2018-03-11T19:03:00.477Z,991
2018-03-11T19:08:29.216Z,991
2018-03-11T19:13:56.964Z,992
2018-03-11T19:19:25.712Z,991
2018-03-11T19:24:54.498Z,991
2018-03-11T19:30:22.195Z,991
2018-03-11T19:35:50.922Z,991
2018-03-11T19:41:18.730Z,991
2018-03-11T19:46:46.498Z,991
2018-03-11T19:52:14.234Z,991
2018-03-11T19:57:42.917Z,991
2018-03-11T20:03:10.669Z,991
2018-03-11T20:08:39.403Z,991
2018-03-11T20:14:07.123Z,991
2018-03-11T20:19:35.856Z,991
2018-03-11T20:25:03.588Z,991
2018-03-11T20:30:32.306Z,991
2018-03-11T20:36:00.051Z,991
2018-03-11T20:41:28.759Z,991
2018-03-11T20:46:57.467Z,991
2018-03-11T20:52:26.209Z,991
2018-03-11T20:57:53.924Z,991
2018-03-11T21:03:21.640Z,991
2018-03-11T21:08:50.412Z,992
2018-03-11T21:14:18.138Z,991
2018-03-11T21:19:46.842Z,992
2018-03-11T21:25:14.554Z,991
2018-03-11T21:30:42.322Z,992
2018-03-11T21:36:10.043Z,992
2018-03-11T21:41:37.827Z,992
2018-03-11T21:47:05.422Z,992
2018-03-11T21:52:34.139Z,992
2018-03-11T21:58:02.865Z,992
2018-03-11T22:03:31.517Z,992
2018-03-11T22:08:59.147Z,992
2018-03-11T22:14:28.036Z,992
2018-03-11T22:19:56.380Z,992
2018-03-11T22:25:24.052Z,992
2018-03-11T22:30:52.627Z,992
2018-03-11T22:36:20.261Z,992
2018-03-11T22:41:47.872Z,992
2018-03-11T22:47:16.479Z,992
2018-03-11T22:52:44.106Z,992
2018-03-11T22:58:12.668Z,992
2018-03-11T23:03:41.206Z,992
2018-03-11T23:09:09.800Z,992
2018-03-11T23:14:38.533Z,992
2018-03-11T23:20:05.973Z,991
2018-03-11T23:25:34.516Z,991
2018-03-11T23:31:02.082Z,991
2018-03-11T23:36:30.660Z,991
2018-03-11T23:36:31.108Z,991
2018-03-11T23:41:58.162Z,991
2018-03-11T23:47:25.744Z,991
2018-03-11T23:52:54.206Z,991
2018-03-11T23:58:22.724Z,991
